sensor_id;sensor_type;location;lat;lon;timestamp;P1;durP1;ratioP1;P2;durP2;ratioP2
29422;SDS011;16399;51.686;8.684;2023-04-03T00:02:15;7.37;;;1.42;;
29422;SDS011;16399;51.686;8.684;2023-04-03T00:05:17;5.85;;;1.30;;
29422;SDS011;16399;51.686;8.684;2023-04-03T00:08:19;3.67;;;1.42;;
29422;SDS011;16399;51.686;8.684;2023-04-03T00:11:22;6.28;;;1.72;;
29422;SDS011;16399;51.686;8.684;2023-04-03T00:14:25;7.33;;;1.92;;
29422;SDS011;16399;51.686;8.684;2023-04-03T00:17:28;5.12;;;1.20;;
29422;SDS011;16399;51.686;8.684;2023-04-03T00:20:30;7.65;;;1.60;;
29422;SDS011;16399;51.686;8.684;2023-04-03T00:23:33;11.50;;;1.62;;
29422;SDS011;16399;51.686;8.684;2023-04-03T00:26:36;8.75;;;1.55;;
29422;SDS011;16399;51.686;8.684;2023-04-03T00:29:38;7.17;;;1.57;;
29422;SDS011;16399;51.686;8.684;2023-04-03T00:32:40;6.15;;;1.40;;
29422;SDS011;16399;51.686;8.684;2023-04-03T00:35:43;7.35;;;1.50;;
29422;SDS011;16399;51.686;8.684;2023-04-03T00:38:45;6.35;;;1.42;;
29422;SDS011;16399;51.686;8.684;2023-04-03T00:41:47;4.80;;;1.45;;
29422;SDS011;16399;51.686;8.684;2023-04-03T00:48:02;5.58;;;1.27;;
29422;SDS011;16399;51.686;8.684;2023-04-03T00:51:08;12.37;;;2.15;;
29422;SDS011;16399;51.686;8.684;2023-04-03T00:54:12;9.60;;;1.90;;
29422;SDS011;16399;51.686;8.684;2023-04-03T00:57:15;7.80;;;2.35;;
29422;SDS011;16399;51.686;8.684;2023-04-03T01:00:18;4.25;;;1.37;;
29422;SDS011;16399;51.686;8.684;2023-04-03T01:03:23;6.22;;;1.50;;
29422;SDS011;16399;51.686;8.684;2023-04-03T01:06:26;6.83;;;1.77;;
29422;SDS011;16399;51.686;8.684;2023-04-03T01:09:32;8.60;;;1.75;;
29422;SDS011;16399;51.686;8.684;2023-04-03T01:12:37;7.05;;;1.95;;
29422;SDS011;16399;51.686;8.684;2023-04-03T01:15:40;8.88;;;1.50;;
29422;SDS011;16399;51.686;8.684;2023-04-03T01:18:42;5.67;;;1.92;;
29422;SDS011;16399;51.686;8.684;2023-04-03T01:21:54;9.98;;;1.40;;
29422;SDS011;16399;51.686;8.684;2023-04-03T01:24:55;7.42;;;1.90;;
29422;SDS011;16399;51.686;8.684;2023-04-03T01:27:57;6.33;;;1.67;;
29422;SDS011;16399;51.686;8.684;2023-04-03T01:31:09;4.95;;;1.27;;
29422;SDS011;16399;51.686;8.684;2023-04-03T01:34:11;7.00;;;1.60;;
29422;SDS011;16399;51.686;8.684;2023-04-03T01:37:13;3.50;;;1.30;;
29422;SDS011;16399;51.686;8.684;2023-04-03T01:40:15;6.78;;;1.82;;
29422;SDS011;16399;51.686;8.684;2023-04-03T01:43:18;5.03;;;1.67;;
29422;SDS011;16399;51.686;8.684;2023-04-03T01:46:20;6.87;;;1.50;;
29422;SDS011;16399;51.686;8.684;2023-04-03T01:49:23;9.13;;;1.65;;
29422;SDS011;16399;51.686;8.684;2023-04-03T01:52:25;9.18;;;1.55;;
29422;SDS011;16399;51.686;8.684;2023-04-03T01:55:27;8.85;;;1.90;;
29422;SDS011;16399;51.686;8.684;2023-04-03T01:58:29;10.53;;;1.82;;
29422;SDS011;16399;51.686;8.684;2023-04-03T02:01:32;4.90;;;1.27;;
29422;SDS011;16399;51.686;8.684;2023-04-03T02:04:34;7.62;;;1.70;;
29422;SDS011;16399;51.686;8.684;2023-04-03T02:07:37;7.35;;;1.52;;
29422;SDS011;16399;51.686;8.684;2023-04-03T02:10:39;6.17;;;1.50;;
29422;SDS011;16399;51.686;8.684;2023-04-03T02:13:41;9.58;;;2.58;;
29422;SDS011;16399;51.686;8.684;2023-04-03T02:16:44;10.32;;;2.58;;
29422;SDS011;16399;51.686;8.684;2023-04-03T02:19:46;11.15;;;3.90;;
29422;SDS011;16399;51.686;8.684;2023-04-03T02:22:48;10.18;;;2.12;;
29422;SDS011;16399;51.686;8.684;2023-04-03T02:25:50;6.40;;;1.67;;
29422;SDS011;16399;51.686;8.684;2023-04-03T02:28:53;6.87;;;1.87;;
29422;SDS011;16399;51.686;8.684;2023-04-03T02:31:55;5.05;;;1.50;;
29422;SDS011;16399;51.686;8.684;2023-04-03T02:34:57;10.00;;;2.08;;
29422;SDS011;16399;51.686;8.684;2023-04-03T02:38:00;5.10;;;2.02;;
29422;SDS011;16399;51.686;8.684;2023-04-03T02:41:03;5.53;;;2.20;;
29422;SDS011;16399;51.686;8.684;2023-04-03T02:44:09;6.47;;;1.98;;
29422;SDS011;16399;51.686;8.684;2023-04-03T02:47:11;5.28;;;1.75;;
29422;SDS011;16399;51.686;8.684;2023-04-03T02:50:14;6.22;;;1.87;;
29422;SDS011;16399;51.686;8.684;2023-04-03T02:53:16;4.97;;;1.60;;
29422;SDS011;16399;51.686;8.684;2023-04-03T02:56:19;7.70;;;1.95;;
29422;SDS011;16399;51.686;8.684;2023-04-03T02:59:21;6.12;;;1.70;;
29422;SDS011;16399;51.686;8.684;2023-04-03T03:02:23;7.03;;;1.87;;
29422;SDS011;16399;51.686;8.684;2023-04-03T03:05:26;6.28;;;1.57;;
29422;SDS011;16399;51.686;8.684;2023-04-03T03:08:29;9.60;;;1.70;;
29422;SDS011;16399;51.686;8.684;2023-04-03T03:11:31;5.87;;;1.70;;
29422;SDS011;16399;51.686;8.684;2023-04-03T03:14:34;4.47;;;1.30;;
29422;SDS011;16399;51.686;8.684;2023-04-03T03:17:36;8.85;;;1.87;;
29422;SDS011;16399;51.686;8.684;2023-04-03T03:20:38;7.62;;;2.08;;
29422;SDS011;16399;51.686;8.684;2023-04-03T03:23:40;6.58;;;1.17;;
29422;SDS011;16399;51.686;8.684;2023-04-03T03:26:43;8.48;;;1.77;;
29422;SDS011;16399;51.686;8.684;2023-04-03T03:29:45;6.22;;;2.05;;
29422;SDS011;16399;51.686;8.684;2023-04-03T03:32:48;8.68;;;2.05;;
29422;SDS011;16399;51.686;8.684;2023-04-03T03:35:51;8.90;;;1.90;;
29422;SDS011;16399;51.686;8.684;2023-04-03T03:38:54;7.95;;;2.05;;
29422;SDS011;16399;51.686;8.684;2023-04-03T03:41:56;8.80;;;1.80;;
29422;SDS011;16399;51.686;8.684;2023-04-03T03:44:58;8.00;;;2.00;;
29422;SDS011;16399;51.686;8.684;2023-04-03T03:48:01;7.25;;;2.58;;
29422;SDS011;16399;51.686;8.684;2023-04-03T03:51:04;8.45;;;2.65;;
29422;SDS011;16399;51.686;8.684;2023-04-03T03:54:07;8.15;;;3.15;;
29422;SDS011;16399;51.686;8.684;2023-04-03T03:57:09;14.03;;;5.10;;
29422;SDS011;16399;51.686;8.684;2023-04-03T04:00:11;6.05;;;1.92;;
29422;SDS011;16399;51.686;8.684;2023-04-03T04:03:14;5.67;;;1.62;;
29422;SDS011;16399;51.686;8.684;2023-04-03T04:06:17;6.08;;;1.95;;
29422;SDS011;16399;51.686;8.684;2023-04-03T04:09:19;5.30;;;1.82;;
29422;SDS011;16399;51.686;8.684;2023-04-03T04:12:22;9.18;;;2.62;;
29422;SDS011;16399;51.686;8.684;2023-04-03T04:15:24;68.87;;;14.05;;
29422;SDS011;16399;51.686;8.684;2023-04-03T04:18:27;31.12;;;5.50;;
29422;SDS011;16399;51.686;8.684;2023-04-03T04:21:29;38.30;;;6.70;;
29422;SDS011;16399;51.686;8.684;2023-04-03T04:24:32;20.08;;;4.40;;
29422;SDS011;16399;51.686;8.684;2023-04-03T04:27:34;105.70;;;18.12;;
29422;SDS011;16399;51.686;8.684;2023-04-03T04:30:37;184.18;;;36.48;;
29422;SDS011;16399;51.686;8.684;2023-04-03T04:33:40;63.20;;;16.77;;
29422;SDS011;16399;51.686;8.684;2023-04-03T04:36:42;26.35;;;7.42;;
29422;SDS011;16399;51.686;8.684;2023-04-03T04:39:44;20.43;;;5.62;;
29422;SDS011;16399;51.686;8.684;2023-04-03T04:42:47;14.28;;;4.22;;
29422;SDS011;16399;51.686;8.684;2023-04-03T04:45:59;16.02;;;4.25;;
29422;SDS011;16399;51.686;8.684;2023-04-03T04:49:03;6.65;;;2.45;;
29422;SDS011;16399;51.686;8.684;2023-04-03T04:52:06;7.83;;;2.27;;
29422;SDS011;16399;51.686;8.684;2023-04-03T04:55:08;7.08;;;1.77;;
29422;SDS011;16399;51.686;8.684;2023-04-03T04:58:10;6.08;;;1.92;;
29422;SDS011;16399;51.686;8.684;2023-04-03T05:01:13;7.58;;;1.70;;
29422;SDS011;16399;51.686;8.684;2023-04-03T05:04:15;9.68;;;1.52;;
29422;SDS011;16399;51.686;8.684;2023-04-03T05:07:17;6.20;;;1.62;;
29422;SDS011;16399;51.686;8.684;2023-04-03T05:10:19;7.20;;;1.32;;
29422;SDS011;16399;51.686;8.684;2023-04-03T05:13:22;9.98;;;1.92;;
29422;SDS011;16399;51.686;8.684;2023-04-03T05:16:24;9.05;;;2.30;;
29422;SDS011;16399;51.686;8.684;2023-04-03T05:19:26;7.12;;;1.65;;
29422;SDS011;16399;51.686;8.684;2023-04-03T05:22:29;6.45;;;1.62;;
29422;SDS011;16399;51.686;8.684;2023-04-03T05:25:31;15.83;;;2.40;;
29422;SDS011;16399;51.686;8.684;2023-04-03T05:28:33;7.00;;;1.90;;
29422;SDS011;16399;51.686;8.684;2023-04-03T05:31:36;4.45;;;1.12;;
29422;SDS011;16399;51.686;8.684;2023-04-03T05:34:39;7.87;;;1.92;;
29422;SDS011;16399;51.686;8.684;2023-04-03T05:37:41;12.25;;;1.77;;
29422;SDS011;16399;51.686;8.684;2023-04-03T05:40:43;8.98;;;2.05;;
29422;SDS011;16399;51.686;8.684;2023-04-03T05:43:46;7.17;;;2.30;;
29422;SDS011;16399;51.686;8.684;2023-04-03T05:46:48;5.20;;;1.85;;
29422;SDS011;16399;51.686;8.684;2023-04-03T05:49:51;13.55;;;2.10;;
29422;SDS011;16399;51.686;8.684;2023-04-03T05:52:54;8.18;;;1.72;;
29422;SDS011;16399;51.686;8.684;2023-04-03T05:55:59;10.13;;;2.25;;
29422;SDS011;16399;51.686;8.684;2023-04-03T05:59:01;9.08;;;2.15;;
29422;SDS011;16399;51.686;8.684;2023-04-03T06:02:04;12.03;;;2.47;;
29422;SDS011;16399;51.686;8.684;2023-04-03T06:05:06;7.25;;;1.55;;
29422;SDS011;16399;51.686;8.684;2023-04-03T06:08:09;8.10;;;1.60;;
29422;SDS011;16399;51.686;8.684;2023-04-03T06:11:12;9.90;;;1.90;;
29422;SDS011;16399;51.686;8.684;2023-04-03T06:14:14;7.78;;;2.17;;
29422;SDS011;16399;51.686;8.684;2023-04-03T06:17:16;13.05;;;2.17;;
29422;SDS011;16399;51.686;8.684;2023-04-03T06:20:19;8.63;;;1.80;;
29422;SDS011;16399;51.686;8.684;2023-04-03T06:23:22;7.72;;;1.60;;
29422;SDS011;16399;51.686;8.684;2023-04-03T06:26:25;5.90;;;1.50;;
29422;SDS011;16399;51.686;8.684;2023-04-03T06:29:27;8.45;;;1.80;;
29422;SDS011;16399;51.686;8.684;2023-04-03T06:32:30;4.95;;;1.55;;
29422;SDS011;16399;51.686;8.684;2023-04-03T06:35:32;7.67;;;1.57;;
29422;SDS011;16399;51.686;8.684;2023-04-03T06:38:35;6.45;;;1.55;;
29422;SDS011;16399;51.686;8.684;2023-04-03T06:41:37;8.55;;;1.62;;
29422;SDS011;16399;51.686;8.684;2023-04-03T06:44:40;7.55;;;1.57;;
29422;SDS011;16399;51.686;8.684;2023-04-03T06:47:42;8.88;;;1.70;;
29422;SDS011;16399;51.686;8.684;2023-04-03T06:50:45;4.85;;;1.90;;
29422;SDS011;16399;51.686;8.684;2023-04-03T06:53:48;5.95;;;1.57;;
29422;SDS011;16399;51.686;8.684;2023-04-03T06:56:51;8.17;;;1.90;;
29422;SDS011;16399;51.686;8.684;2023-04-03T06:59:54;8.00;;;1.50;;
29422;SDS011;16399;51.686;8.684;2023-04-03T07:02:56;5.22;;;1.25;;
29422;SDS011;16399;51.686;8.684;2023-04-03T07:05:58;5.95;;;1.65;;
29422;SDS011;16399;51.686;8.684;2023-04-03T07:09:01;7.58;;;1.45;;
29422;SDS011;16399;51.686;8.684;2023-04-03T07:12:03;8.65;;;2.12;;
29422;SDS011;16399;51.686;8.684;2023-04-03T07:15:05;7.55;;;1.67;;
29422;SDS011;16399;51.686;8.684;2023-04-03T07:18:08;6.72;;;1.67;;
29422;SDS011;16399;51.686;8.684;2023-04-03T07:21:11;6.62;;;2.27;;
29422;SDS011;16399;51.686;8.684;2023-04-03T07:24:14;3.50;;;1.30;;
29422;SDS011;16399;51.686;8.684;2023-04-03T07:27:16;4.95;;;1.22;;
29422;SDS011;16399;51.686;8.684;2023-04-03T07:30:18;6.17;;;1.45;;
29422;SDS011;16399;51.686;8.684;2023-04-03T07:33:21;5.08;;;1.50;;
29422;SDS011;16399;51.686;8.684;2023-04-03T07:36:24;7.08;;;1.40;;
29422;SDS011;16399;51.686;8.684;2023-04-03T07:39:26;7.80;;;1.25;;
29422;SDS011;16399;51.686;8.684;2023-04-03T07:42:28;6.75;;;1.45;;
29422;SDS011;16399;51.686;8.684;2023-04-03T07:45:31;3.92;;;1.30;;
29422;SDS011;16399;51.686;8.684;2023-04-03T07:48:35;8.88;;;1.87;;
29422;SDS011;16399;51.686;8.684;2023-04-03T07:51:38;4.10;;;1.20;;
29422;SDS011;16399;51.686;8.684;2023-04-03T07:54:41;9.80;;;1.45;;
29422;SDS011;16399;51.686;8.684;2023-04-03T07:57:43;3.15;;;1.25;;
29422;SDS011;16399;51.686;8.684;2023-04-03T08:00:46;9.45;;;1.45;;
29422;SDS011;16399;51.686;8.684;2023-04-03T08:03:49;5.28;;;1.20;;
29422;SDS011;16399;51.686;8.684;2023-04-03T08:06:51;3.20;;;1.05;;
29422;SDS011;16399;51.686;8.684;2023-04-03T08:09:53;5.42;;;1.20;;
29422;SDS011;16399;51.686;8.684;2023-04-03T08:12:56;3.80;;;1.10;;
29422;SDS011;16399;51.686;8.684;2023-04-03T08:16:06;4.33;;;1.10;;
29422;SDS011;16399;51.686;8.684;2023-04-03T08:19:09;8.13;;;0.88;;
29422;SDS011;16399;51.686;8.684;2023-04-03T08:22:13;9.35;;;0.90;;
29422;SDS011;16399;51.686;8.684;2023-04-03T08:25:16;3.45;;;0.80;;
29422;SDS011;16399;51.686;8.684;2023-04-03T08:28:18;3.60;;;0.90;;
29422;SDS011;16399;51.686;8.684;2023-04-03T08:31:21;6.47;;;1.17;;
29422;SDS011;16399;51.686;8.684;2023-04-03T08:34:23;2.12;;;0.70;;
29422;SDS011;16399;51.686;8.684;2023-04-03T08:37:25;2.50;;;1.00;;
29422;SDS011;16399;51.686;8.684;2023-04-03T08:40:28;3.17;;;0.88;;
29422;SDS011;16399;51.686;8.684;2023-04-03T08:43:39;4.00;;;1.00;;
29422;SDS011;16399;51.686;8.684;2023-04-03T08:46:45;2.77;;;0.80;;
29422;SDS011;16399;51.686;8.684;2023-04-03T08:50:06;6.33;;;1.15;;
29422;SDS011;16399;51.686;8.684;2023-04-03T08:53:19;2.70;;;0.90;;
29422;SDS011;16399;51.686;8.684;2023-04-03T08:56:19;3.35;;;0.70;;
29422;SDS011;16399;51.686;8.684;2023-04-03T08:59:25;2.55;;;0.68;;
29422;SDS011;16399;51.686;8.684;2023-04-03T09:02:33;5.42;;;1.10;;
29422;SDS011;16399;51.686;8.684;2023-04-03T09:06:00;2.10;;;0.88;;
29422;SDS011;16399;51.686;8.684;2023-04-03T09:09:13;3.35;;;0.78;;
29422;SDS011;16399;51.686;8.684;2023-04-03T09:12:18;2.67;;;0.70;;
29422;SDS011;16399;51.686;8.684;2023-04-03T09:15:24;5.03;;;1.02;;
29422;SDS011;16399;51.686;8.684;2023-04-03T09:18:28;5.08;;;1.07;;
29422;SDS011;16399;51.686;8.684;2023-04-03T09:21:36;3.25;;;0.95;;
29422;SDS011;16399;51.686;8.684;2023-04-03T09:24:42;4.47;;;0.85;;
29422;SDS011;16399;51.686;8.684;2023-04-03T09:27:47;5.70;;;1.15;;
29422;SDS011;16399;51.686;8.684;2023-04-03T09:30:49;5.55;;;0.90;;
29422;SDS011;16399;51.686;8.684;2023-04-03T09:33:53;3.42;;;1.20;;
29422;SDS011;16399;51.686;8.684;2023-04-03T09:37:00;3.02;;;1.00;;
29422;SDS011;16399;51.686;8.684;2023-04-03T09:40:05;5.15;;;1.35;;
29422;SDS011;16399;51.686;8.684;2023-04-03T09:46:31;5.67;;;1.00;;
29422;SDS011;16399;51.686;8.684;2023-04-03T09:49:35;3.90;;;1.15;;
29422;SDS011;16399;51.686;8.684;2023-04-03T09:52:37;5.37;;;1.07;;
29422;SDS011;16399;51.686;8.684;2023-04-03T09:55:42;4.20;;;1.15;;
29422;SDS011;16399;51.686;8.684;2023-04-03T09:58:46;4.03;;;1.15;;
29422;SDS011;16399;51.686;8.684;2023-04-03T10:02:02;4.20;;;1.22;;
29422;SDS011;16399;51.686;8.684;2023-04-03T10:05:25;3.52;;;1.12;;
29422;SDS011;16399;51.686;8.684;2023-04-03T10:11:34;2.83;;;0.60;;
29422;SDS011;16399;51.686;8.684;2023-04-03T10:14:42;4.47;;;1.05;;
29422;SDS011;16399;51.686;8.684;2023-04-03T10:17:57;3.10;;;0.95;;
29422;SDS011;16399;51.686;8.684;2023-04-03T10:21:06;3.25;;;1.05;;
29422;SDS011;16399;51.686;8.684;2023-04-03T10:27:33;3.95;;;1.00;;
29422;SDS011;16399;51.686;8.684;2023-04-03T10:30:42;3.42;;;0.75;;
29422;SDS011;16399;51.686;8.684;2023-04-03T10:33:52;4.75;;;1.10;;
29422;SDS011;16399;51.686;8.684;2023-04-03T10:40:30;2.95;;;0.82;;
29422;SDS011;16399;51.686;8.684;2023-04-03T10:43:43;7.75;;;1.05;;
29422;SDS011;16399;51.686;8.684;2023-04-03T10:46:51;5.35;;;1.00;;
29422;SDS011;16399;51.686;8.684;2023-04-03T10:50:24;3.17;;;0.90;;
29422;SDS011;16399;51.686;8.684;2023-04-03T10:57:08;6.75;;;1.67;;
29422;SDS011;16399;51.686;8.684;2023-04-03T11:00:18;2.67;;;1.07;;
29422;SDS011;16399;51.686;8.684;2023-04-03T11:03:24;4.47;;;1.20;;
29422;SDS011;16399;51.686;8.684;2023-04-03T11:06:32;7.78;;;1.00;;
29422;SDS011;16399;51.686;8.684;2023-04-03T11:09:37;6.42;;;1.10;;
29422;SDS011;16399;51.686;8.684;2023-04-03T11:12:43;3.80;;;1.00;;
29422;SDS011;16399;51.686;8.684;2023-04-03T11:18:51;4.40;;;0.82;;
29422;SDS011;16399;51.686;8.684;2023-04-03T11:22:00;5.60;;;1.20;;
29422;SDS011;16399;51.686;8.684;2023-04-03T11:25:04;3.47;;;0.80;;
29422;SDS011;16399;51.686;8.684;2023-04-03T11:28:12;4.33;;;0.80;;
29422;SDS011;16399;51.686;8.684;2023-04-03T11:34:39;6.17;;;0.85;;
29422;SDS011;16399;51.686;8.684;2023-04-03T11:37:49;4.78;;;1.20;;
29422;SDS011;16399;51.686;8.684;2023-04-03T11:40:49;3.75;;;0.98;;
29422;SDS011;16399;51.686;8.684;2023-04-03T11:44:00;4.67;;;1.05;;
29422;SDS011;16399;51.686;8.684;2023-04-03T11:47:08;3.05;;;0.80;;
29422;SDS011;16399;51.686;8.684;2023-04-03T11:53:42;9.00;;;1.12;;
29422;SDS011;16399;51.686;8.684;2023-04-03T11:56:45;3.55;;;1.05;;
29422;SDS011;16399;51.686;8.684;2023-04-03T11:59:47;3.10;;;0.82;;
29422;SDS011;16399;51.686;8.684;2023-04-03T12:02:49;8.10;;;1.95;;
29422;SDS011;16399;51.686;8.684;2023-04-03T12:09:00;3.58;;;0.88;;
29422;SDS011;16399;51.686;8.684;2023-04-03T12:12:20;5.55;;;1.12;;
29422;SDS011;16399;51.686;8.684;2023-04-03T12:15:38;5.33;;;1.15;;
29422;SDS011;16399;51.686;8.684;2023-04-03T12:25:10;3.52;;;1.15;;
29422;SDS011;16399;51.686;8.684;2023-04-03T12:28:09;4.70;;;1.42;;
29422;SDS011;16399;51.686;8.684;2023-04-03T12:31:12;5.87;;;1.12;;
29422;SDS011;16399;51.686;8.684;2023-04-03T12:35:05;3.58;;;0.80;;
29422;SDS011;16399;51.686;8.684;2023-04-03T12:47:39;4.85;;;1.02;;
29422;SDS011;16399;51.686;8.684;2023-04-03T12:50:47;6.75;;;1.30;;
29422;SDS011;16399;51.686;8.684;2023-04-03T12:53:51;5.72;;;1.02;;
29422;SDS011;16399;51.686;8.684;2023-04-03T12:57:12;4.10;;;1.15;;
29422;SDS011;16399;51.686;8.684;2023-04-03T13:03:33;2.42;;;0.80;;
29422;SDS011;16399;51.686;8.684;2023-04-03T13:06:41;4.05;;;1.10;;
29422;SDS011;16399;51.686;8.684;2023-04-03T13:09:44;7.20;;;1.20;;
29422;SDS011;16399;51.686;8.684;2023-04-03T13:12:54;4.92;;;0.88;;
29422;SDS011;16399;51.686;8.684;2023-04-03T13:15:58;4.53;;;1.17;;
29422;SDS011;16399;51.686;8.684;2023-04-03T13:19:02;3.47;;;0.90;;
29422;SDS011;16399;51.686;8.684;2023-04-03T13:22:06;6.35;;;1.20;;
29422;SDS011;16399;51.686;8.684;2023-04-03T13:25:16;4.05;;;0.98;;
29422;SDS011;16399;51.686;8.684;2023-04-03T13:28:22;5.28;;;1.20;;
29422;SDS011;16399;51.686;8.684;2023-04-03T13:31:27;4.17;;;1.07;;
29422;SDS011;16399;51.686;8.684;2023-04-03T13:34:41;4.08;;;1.47;;
29422;SDS011;16399;51.686;8.684;2023-04-03T13:37:53;6.50;;;1.37;;
29422;SDS011;16399;51.686;8.684;2023-04-03T13:40:56;5.53;;;1.10;;
29422;SDS011;16399;51.686;8.684;2023-04-03T13:47:37;3.72;;;1.17;;
29422;SDS011;16399;51.686;8.684;2023-04-03T13:50:58;5.87;;;1.17;;
29422;SDS011;16399;51.686;8.684;2023-04-03T13:54:10;5.47;;;1.30;;
29422;SDS011;16399;51.686;8.684;2023-04-03T13:57:23;4.05;;;1.25;;
29422;SDS011;16399;51.686;8.684;2023-04-03T14:03:51;6.58;;;1.40;;
29422;SDS011;16399;51.686;8.684;2023-04-03T14:06:49;4.08;;;1.32;;
29422;SDS011;16399;51.686;8.684;2023-04-03T14:09:52;3.37;;;0.90;;
29422;SDS011;16399;51.686;8.684;2023-04-03T14:12:54;3.87;;;1.47;;
29422;SDS011;16399;51.686;8.684;2023-04-03T14:15:57;4.55;;;1.15;;
29422;SDS011;16399;51.686;8.684;2023-04-03T14:18:59;3.02;;;1.05;;
29422;SDS011;16399;51.686;8.684;2023-04-03T14:22:07;3.52;;;0.88;;
29422;SDS011;16399;51.686;8.684;2023-04-03T14:25:09;5.85;;;1.27;;
29422;SDS011;16399;51.686;8.684;2023-04-03T14:28:16;3.45;;;1.10;;
29422;SDS011;16399;51.686;8.684;2023-04-03T14:31:21;4.58;;;1.80;;
29422;SDS011;16399;51.686;8.684;2023-04-03T14:34:24;3.45;;;1.22;;
29422;SDS011;16399;51.686;8.684;2023-04-03T14:37:27;4.47;;;1.30;;
29422;SDS011;16399;51.686;8.684;2023-04-03T14:40:31;5.62;;;1.30;;
29422;SDS011;16399;51.686;8.684;2023-04-03T14:43:33;3.83;;;1.25;;
29422;SDS011;16399;51.686;8.684;2023-04-03T14:46:36;3.45;;;1.30;;
29422;SDS011;16399;51.686;8.684;2023-04-03T14:49:41;4.60;;;1.15;;
29422;SDS011;16399;51.686;8.684;2023-04-03T14:52:44;4.90;;;1.10;;
29422;SDS011;16399;51.686;8.684;2023-04-03T14:55:47;3.05;;;1.12;;
29422;SDS011;16399;51.686;8.684;2023-04-03T14:58:51;5.83;;;1.10;;
29422;SDS011;16399;51.686;8.684;2023-04-03T15:01:58;4.20;;;1.20;;
29422;SDS011;16399;51.686;8.684;2023-04-03T15:05:01;3.92;;;1.10;;
29422;SDS011;16399;51.686;8.684;2023-04-03T15:08:08;3.95;;;1.40;;
29422;SDS011;16399;51.686;8.684;2023-04-03T15:11:11;4.15;;;1.10;;
29422;SDS011;16399;51.686;8.684;2023-04-03T15:14:14;4.90;;;1.20;;
29422;SDS011;16399;51.686;8.684;2023-04-03T15:17:19;4.17;;;1.20;;
29422;SDS011;16399;51.686;8.684;2023-04-03T15:20:25;5.72;;;1.10;;
29422;SDS011;16399;51.686;8.684;2023-04-03T15:23:30;3.87;;;1.00;;
29422;SDS011;16399;51.686;8.684;2023-04-03T15:26:32;5.17;;;1.42;;
29422;SDS011;16399;51.686;8.684;2023-04-03T15:29:35;5.30;;;1.25;;
29422;SDS011;16399;51.686;8.684;2023-04-03T15:32:37;3.05;;;1.20;;
29422;SDS011;16399;51.686;8.684;2023-04-03T15:35:40;4.90;;;1.40;;
29422;SDS011;16399;51.686;8.684;2023-04-03T15:38:42;9.43;;;1.60;;
29422;SDS011;16399;51.686;8.684;2023-04-03T15:41:44;3.12;;;1.10;;
29422;SDS011;16399;51.686;8.684;2023-04-03T15:44:47;4.35;;;1.20;;
29422;SDS011;16399;51.686;8.684;2023-04-03T15:47:49;3.12;;;1.10;;
29422;SDS011;16399;51.686;8.684;2023-04-03T15:50:52;4.55;;;1.00;;
29422;SDS011;16399;51.686;8.684;2023-04-03T15:53:54;4.30;;;1.10;;
29422;SDS011;16399;51.686;8.684;2023-04-03T15:56:56;3.98;;;1.10;;
29422;SDS011;16399;51.686;8.684;2023-04-03T15:59:59;4.30;;;1.35;;
29422;SDS011;16399;51.686;8.684;2023-04-03T16:03:04;2.55;;;1.10;;
29422;SDS011;16399;51.686;8.684;2023-04-03T16:06:16;5.20;;;1.47;;
29422;SDS011;16399;51.686;8.684;2023-04-03T16:09:19;4.57;;;1.20;;
29422;SDS011;16399;51.686;8.684;2023-04-03T16:12:22;2.47;;;1.05;;
29422;SDS011;16399;51.686;8.684;2023-04-03T16:15:24;6.12;;;1.57;;
29422;SDS011;16399;51.686;8.684;2023-04-03T16:18:28;4.42;;;1.27;;
29422;SDS011;16399;51.686;8.684;2023-04-03T16:21:31;5.77;;;1.57;;
29422;SDS011;16399;51.686;8.684;2023-04-03T16:24:34;4.40;;;1.00;;
29422;SDS011;16399;51.686;8.684;2023-04-03T16:27:36;4.00;;;1.40;;
29422;SDS011;16399;51.686;8.684;2023-04-03T16:30:44;5.72;;;1.15;;
29422;SDS011;16399;51.686;8.684;2023-04-03T16:33:43;3.40;;;1.20;;
29422;SDS011;16399;51.686;8.684;2023-04-03T16:36:45;7.72;;;1.98;;
29422;SDS011;16399;51.686;8.684;2023-04-03T16:39:47;5.72;;;1.45;;
29422;SDS011;16399;51.686;8.684;2023-04-03T16:42:51;4.60;;;1.67;;
29422;SDS011;16399;51.686;8.684;2023-04-03T16:45:53;3.50;;;1.25;;
29422;SDS011;16399;51.686;8.684;2023-04-03T16:48:55;4.95;;;1.30;;
29422;SDS011;16399;51.686;8.684;2023-04-03T16:51:58;4.20;;;1.32;;
29422;SDS011;16399;51.686;8.684;2023-04-03T16:55:01;3.65;;;1.30;;
29422;SDS011;16399;51.686;8.684;2023-04-03T16:58:03;6.20;;;1.47;;
29422;SDS011;16399;51.686;8.684;2023-04-03T17:01:13;4.60;;;1.17;;
29422;SDS011;16399;51.686;8.684;2023-04-03T17:04:17;7.33;;;1.67;;
29422;SDS011;16399;51.686;8.684;2023-04-03T17:07:19;3.75;;;1.07;;
29422;SDS011;16399;51.686;8.684;2023-04-03T17:10:23;3.08;;;1.17;;
29422;SDS011;16399;51.686;8.684;2023-04-03T17:13:27;7.42;;;2.02;;
29422;SDS011;16399;51.686;8.684;2023-04-03T17:16:32;7.75;;;2.45;;
29422;SDS011;16399;51.686;8.684;2023-04-03T17:19:36;5.05;;;1.98;;
29422;SDS011;16399;51.686;8.684;2023-04-03T17:22:40;3.95;;;1.10;;
29422;SDS011;16399;51.686;8.684;2023-04-03T17:25:43;3.58;;;1.30;;
29422;SDS011;16399;51.686;8.684;2023-04-03T17:28:46;3.70;;;1.57;;
29422;SDS011;16399;51.686;8.684;2023-04-03T17:31:48;4.45;;;1.30;;
29422;SDS011;16399;51.686;8.684;2023-04-03T17:34:51;8.45;;;2.35;;
29422;SDS011;16399;51.686;8.684;2023-04-03T17:37:53;4.87;;;2.10;;
29422;SDS011;16399;51.686;8.684;2023-04-03T17:41:01;6.72;;;2.20;;
29422;SDS011;16399;51.686;8.684;2023-04-03T17:44:00;6.60;;;1.60;;
29422;SDS011;16399;51.686;8.684;2023-04-03T17:47:03;4.33;;;1.37;;
29422;SDS011;16399;51.686;8.684;2023-04-03T17:50:06;5.72;;;1.60;;
29422;SDS011;16399;51.686;8.684;2023-04-03T17:53:08;4.12;;;1.25;;
29422;SDS011;16399;51.686;8.684;2023-04-03T17:56:12;8.78;;;1.67;;
29422;SDS011;16399;51.686;8.684;2023-04-03T17:59:16;4.65;;;1.35;;
29422;SDS011;16399;51.686;8.684;2023-04-03T18:02:18;4.65;;;1.60;;
29422;SDS011;16399;51.686;8.684;2023-04-03T18:05:21;7.95;;;2.02;;
29422;SDS011;16399;51.686;8.684;2023-04-03T18:08:25;8.25;;;1.98;;
29422;SDS011;16399;51.686;8.684;2023-04-03T18:11:28;10.50;;;2.40;;
29422;SDS011;16399;51.686;8.684;2023-04-03T18:14:31;5.42;;;1.98;;
29422;SDS011;16399;51.686;8.684;2023-04-03T18:17:35;4.83;;;1.40;;
29422;SDS011;16399;51.686;8.684;2023-04-03T18:20:38;5.30;;;1.62;;
29422;SDS011;16399;51.686;8.684;2023-04-03T18:23:41;7.53;;;2.72;;
29422;SDS011;16399;51.686;8.684;2023-04-03T18:26:47;6.37;;;2.15;;
29422;SDS011;16399;51.686;8.684;2023-04-03T18:29:52;5.95;;;2.27;;
29422;SDS011;16399;51.686;8.684;2023-04-03T18:32:56;9.18;;;3.37;;
29422;SDS011;16399;51.686;8.684;2023-04-03T18:35:58;5.67;;;2.50;;
29422;SDS011;16399;51.686;8.684;2023-04-03T18:39:01;7.10;;;2.58;;
29422;SDS011;16399;51.686;8.684;2023-04-03T18:42:16;4.42;;;1.85;;
29422;SDS011;16399;51.686;8.684;2023-04-03T18:45:21;5.67;;;2.33;;
29422;SDS011;16399;51.686;8.684;2023-04-03T18:48:24;4.25;;;1.70;;
29422;SDS011;16399;51.686;8.684;2023-04-03T18:51:27;7.30;;;2.08;;
29422;SDS011;16399;51.686;8.684;2023-04-03T18:54:30;4.08;;;1.77;;
29422;SDS011;16399;51.686;8.684;2023-04-03T18:57:32;6.45;;;2.20;;
29422;SDS011;16399;51.686;8.684;2023-04-03T19:00:34;5.83;;;2.20;;
29422;SDS011;16399;51.686;8.684;2023-04-03T19:03:38;9.75;;;2.45;;
29422;SDS011;16399;51.686;8.684;2023-04-03T19:06:41;5.03;;;2.15;;
29422;SDS011;16399;51.686;8.684;2023-04-03T19:09:43;8.98;;;1.62;;
29422;SDS011;16399;51.686;8.684;2023-04-03T19:12:46;5.65;;;2.02;;
29422;SDS011;16399;51.686;8.684;2023-04-03T19:15:50;5.07;;;1.90;;
29422;SDS011;16399;51.686;8.684;2023-04-03T19:18:54;6.72;;;2.33;;
29422;SDS011;16399;51.686;8.684;2023-04-03T19:21:56;6.80;;;2.12;;
29422;SDS011;16399;51.686;8.684;2023-04-03T19:24:59;5.05;;;1.90;;
29422;SDS011;16399;51.686;8.684;2023-04-03T19:28:01;5.25;;;2.20;;